createdAt,value
2018-12-18T00:00:07.485Z,81.40
2018-12-18T00:02:50.427Z,81.00
2018-12-18T00:05:38.475Z,81.40
2018-12-18T00:08:16.530Z,81.30
2018-12-18T00:11:01.247Z,81.40
2018-12-18T00:13:40.698Z,81.30
2018-12-18T00:19:23.225Z,81.50
2018-12-18T00:22:08.929Z,80.60
2018-12-18T00:24:46.455Z,80.60
2018-12-18T00:27:24.172Z,80.20
2018-12-18T00:30:05.754Z,79.90
2018-12-18T00:32:51.441Z,80.00
2018-12-18T00:35:27.054Z,80.10
2018-12-18T00:38:06.208Z,80.30
2018-12-18T00:46:45.992Z,80.60
2018-12-18T00:49:18.649Z,80.80
2018-12-18T00:52:12.985Z,80.90
2018-12-18T00:54:45.243Z,81.40
2018-12-18T00:57:17.959Z,81.60
2018-12-18T00:59:50.677Z,81.80
2018-12-18T01:02:23.662Z,81.80
2018-12-18T01:05:09.471Z,82.00
2018-12-18T01:07:42.177Z,82.50
2018-12-18T01:10:15.750Z,82.40
2018-12-18T01:13:01.342Z,82.40
2018-12-18T01:15:37.642Z,82.60
2018-12-18T01:18:15.982Z,82.10
2018-12-18T01:23:53.270Z,81.40
2018-12-18T01:26:31.215Z,81.80
2018-12-18T01:29:24.037Z,81.80
2018-12-18T01:35:05.167Z,81.40
2018-12-18T01:43:44.516Z,79.90
2018-12-18T01:46:17.410Z,79.70
2018-12-18T01:52:01.183Z,79.60
2018-12-18T01:54:39.070Z,79.90
2018-12-18T01:57:24.900Z,79.60
2018-12-18T02:00:02.238Z,79.90
2018-12-18T02:05:49.084Z,78.80
2018-12-18T02:14:29.723Z,77.20
2018-12-18T02:20:23.589Z,76.10
2018-12-18T02:23:06.972Z,75.90
2018-12-18T02:25:44.473Z,75.70
2018-12-18T02:28:32.426Z,75.50
2018-12-18T02:34:13.967Z,75.20
2018-12-18T02:36:46.713Z,75.40
2018-12-18T02:39:19.432Z,75.20
2018-12-18T02:41:52.275Z,75.70
2018-12-18T02:44:25.113Z,75.80
2018-12-18T02:46:57.189Z,75.90
2018-12-18T02:49:30.092Z,76.00
2018-12-18T02:52:02.980Z,75.40
2018-12-18T02:54:33.980Z,75.30
2018-12-18T02:57:06.705Z,75.30
2018-12-18T02:59:39.583Z,74.70
2018-12-18T03:02:12.446Z,74.50
2018-12-18T03:04:45.277Z,74.00
2018-12-18T03:07:17.901Z,72.90
2018-12-18T03:09:50.454Z,72.10
2018-12-18T03:12:23.368Z,72.10
2018-12-18T03:14:56.166Z,71.90
2018-12-18T03:17:29.001Z,72.20
2018-12-18T03:19:59.758Z,72.90
2018-12-18T03:22:32.381Z,73.60
2018-12-18T03:25:04.882Z,73.80
2018-12-18T03:27:37.377Z,74.40
2018-12-18T03:30:12.259Z,74.80
2018-12-18T03:32:49.644Z,75.30
2018-12-18T03:35:22.166Z,75.70
2018-12-18T03:37:54.953Z,76.10
2018-12-18T03:40:27.725Z,76.20
2018-12-18T03:43:00.650Z,76.60
2018-12-18T03:45:33.343Z,78.10
2018-12-18T03:48:06.349Z,79.00
2018-12-18T03:50:39.440Z,79.80
2018-12-18T03:53:11.989Z,80.60
2018-12-18T03:55:44.120Z,81.60
2018-12-18T03:58:16.990Z,82.00
2018-12-18T04:00:49.838Z,82.30
2018-12-18T04:03:22.712Z,82.60
2018-12-18T04:05:55.563Z,82.20
2018-12-18T04:08:28.925Z,82.00
2018-12-18T04:11:01.903Z,81.50
2018-12-18T04:13:34.399Z,81.20
2018-12-18T04:16:07.082Z,80.80
2018-12-18T04:18:40.096Z,80.90
2018-12-18T04:21:12.740Z,80.70
2018-12-18T04:23:45.347Z,80.60
2018-12-18T04:26:18.151Z,80.40
2018-12-18T04:28:51.058Z,81.00
2018-12-18T04:31:23.868Z,80.20
2018-12-18T04:44:02.126Z,80.20
2018-12-18T04:46:34.808Z,80.30
2018-12-18T04:56:40.642Z,80.00
2018-12-18T04:59:13.553Z,79.90
2018-12-18T05:01:47.289Z,79.30
2018-12-18T05:04:20.195Z,79.40
2018-12-18T05:06:53.300Z,79.20
2018-12-18T05:09:26.026Z,79.80
2018-12-18T05:11:58.072Z,80.50
2018-12-18T05:14:30.814Z,80.80
2018-12-18T05:17:02.882Z,81.30
2018-12-18T05:19:34.873Z,80.90
2018-12-18T05:22:07.709Z,80.80
2018-12-18T05:24:39.846Z,79.80
2018-12-18T05:27:12.027Z,80.20
2018-12-18T05:29:44.713Z,80.10
2018-12-18T05:32:16.740Z,79.50
2018-12-18T05:35:04.793Z,80.20
2018-12-18T05:37:35.341Z,80.40
2018-12-18T05:40:08.069Z,80.80
2018-12-18T05:42:40.757Z,80.90
2018-12-18T05:45:13.559Z,80.50
2018-12-18T05:47:46.502Z,79.30
2018-12-18T05:50:19.387Z,79.20
2018-12-18T05:52:52.687Z,78.50
2018-12-18T05:55:25.215Z,78.00
2018-12-18T05:57:56.177Z,77.10
2018-12-18T06:00:29.022Z,76.60
2018-12-18T06:03:01.574Z,76.70
2018-12-18T06:05:34.405Z,76.20
2018-12-18T06:08:07.637Z,75.70
2018-12-18T06:10:40.083Z,75.80
2018-12-18T06:13:12.990Z,76.20
2018-12-18T06:15:45.865Z,76.50
2018-12-18T06:18:16.827Z,76.50
2018-12-18T06:20:50.500Z,76.80
2018-12-18T06:23:21.282Z,76.40
2018-12-18T06:25:53.335Z,76.30
2018-12-18T06:28:25.460Z,75.70
2018-12-18T06:30:58.400Z,76.20
2018-12-18T06:33:31.145Z,76.70
2018-12-18T06:36:03.232Z,77.20
2018-12-18T06:38:36.490Z,77.40
2018-12-18T06:41:08.905Z,77.90
2018-12-18T06:43:41.851Z,77.80
2018-12-18T06:46:14.586Z,77.90
2018-12-18T06:48:47.374Z,78.60
2018-12-18T06:51:20.407Z,79.10
2018-12-18T06:53:51.004Z,79.00
2018-12-18T06:56:23.516Z,77.80
2018-12-18T06:58:56.510Z,77.40
2018-12-18T07:01:29.257Z,78.30
2018-12-18T07:04:02.127Z,77.50
2018-12-18T07:06:35.232Z,76.50
2018-12-18T07:09:10.506Z,74.90
2018-12-18T07:11:42.637Z,73.10
2018-12-18T07:14:15.464Z,71.90
2018-12-18T07:16:48.278Z,70.60
2018-12-18T07:19:22.930Z,69.40
2018-12-18T07:21:55.352Z,67.90
2018-12-18T07:24:28.190Z,66.70
2018-12-18T07:27:00.892Z,66.80
2018-12-18T07:29:33.725Z,65.30
2018-12-18T07:32:06.537Z,64.70
2018-12-18T07:34:39.373Z,62.70
2018-12-18T07:37:11.965Z,61.10
2018-12-18T07:39:45.225Z,61.50
2018-12-18T07:42:17.627Z,62.00
2018-12-18T07:44:49.590Z,61.00
2018-12-18T07:47:22.168Z,61.40
2018-12-18T07:49:55.110Z,61.40
2018-12-18T07:52:27.148Z,61.50
2018-12-18T07:55:00.193Z,60.00
2018-12-18T08:00:34.713Z,57.30
2018-12-18T08:03:18.761Z,55.30
2018-12-18T08:05:51.158Z,55.80
2018-12-18T08:08:24.055Z,54.60
2018-12-18T08:11:02.075Z,55.20
2018-12-18T08:13:34.406Z,55.10
2018-12-18T08:16:07.270Z,55.40
2018-12-18T08:18:40.042Z,54.50
2018-12-18T08:21:13.015Z,52.60
2018-12-18T08:23:45.780Z,53.40
2018-12-18T08:26:18.623Z,52.10
2018-12-18T08:29:06.645Z,51.90
2018-12-18T08:31:52.383Z,49.80
2018-12-18T08:34:24.818Z,49.70
2018-12-18T08:36:57.638Z,49.40
2018-12-18T08:39:30.590Z,48.60
2018-12-18T08:42:02.670Z,48.30
2018-12-18T08:44:48.575Z,47.40
2018-12-18T08:47:21.195Z,47.30
2018-12-18T08:49:54.017Z,48.20
2018-12-18T08:52:26.940Z,48.70
2018-12-18T08:55:10.739Z,49.10
2018-12-18T08:57:41.605Z,47.90
2018-12-18T09:00:14.565Z,47.90
2018-12-18T09:02:47.467Z,46.20
2018-12-18T09:05:20.393Z,47.10
2018-12-18T09:07:53.413Z,48.00
2018-12-18T09:10:26.204Z,47.70
2018-12-18T09:12:59.687Z,48.20
2018-12-18T09:15:37.802Z,48.90
2018-12-18T09:18:10.159Z,47.10
2018-12-18T09:20:42.809Z,46.40
2018-12-18T09:23:15.712Z,47.30
2018-12-18T09:25:49.182Z,46.50
2018-12-18T09:28:22.490Z,46.00
2018-12-18T09:30:54.456Z,44.90
2018-12-18T09:33:28.547Z,45.90
2018-12-18T09:36:01.442Z,44.60
2018-12-18T09:38:40.543Z,46.40
2018-12-18T09:41:18.492Z,45.50
2018-12-18T09:44:01.115Z,45.20
2018-12-18T09:46:33.829Z,45.40
2018-12-18T09:49:06.525Z,44.30
2018-12-18T09:51:39.556Z,44.40
2018-12-18T09:54:12.439Z,43.60
2018-12-18T09:56:50.162Z,46.00
2018-12-18T10:02:32.238Z,45.50
2018-12-18T10:05:05.844Z,44.70
2018-12-18T10:07:42.494Z,45.00
2018-12-18T10:10:16.317Z,44.40
2018-12-18T10:12:52.602Z,43.80
2018-12-18T10:15:26.050Z,44.70
2018-12-18T10:17:58.594Z,43.40
2018-12-18T10:20:31.545Z,43.70
2018-12-18T10:23:03.697Z,45.30
2018-12-18T10:28:43.305Z,44.70
2018-12-18T10:31:16.114Z,43.80
2018-12-18T10:33:48.854Z,43.10
2018-12-18T10:36:21.843Z,43.00
2018-12-18T10:38:53.917Z,40.90
2018-12-18T10:41:25.949Z,41.90
2018-12-18T10:43:58.694Z,42.30
2018-12-18T10:49:03.268Z,42.20
2018-12-18T10:51:35.872Z,41.20
2018-12-18T10:54:08.456Z,40.90
2018-12-18T10:56:41.358Z,39.90
2018-12-18T10:59:13.610Z,40.80
2018-12-18T11:01:47.904Z,40.00
2018-12-18T11:04:20.217Z,40.40
2018-12-18T11:06:53.010Z,39.80
2018-12-18T11:09:25.830Z,40.80
2018-12-18T11:11:58.622Z,39.30
2018-12-18T11:14:31.647Z,39.90
2018-12-18T11:17:02.210Z,39.50
2018-12-18T11:19:35.100Z,39.90
2018-12-18T11:22:07.225Z,38.70
2018-12-18T11:24:40.106Z,38.00
2018-12-18T11:27:12.728Z,37.90
2018-12-18T11:29:45.610Z,36.60
2018-12-18T11:32:18.534Z,37.40
2018-12-18T11:34:51.426Z,36.50
2018-12-18T11:37:24.983Z,36.90
2018-12-18T11:39:57.250Z,36.90
2018-12-18T11:42:28.037Z,36.60
2018-12-18T11:45:00.954Z,37.80
2018-12-18T11:47:33.795Z,37.30
2018-12-18T11:50:06.737Z,36.60
2018-12-18T11:52:40.166Z,34.20
2018-12-18T11:55:13.192Z,36.10
2018-12-18T11:57:46.122Z,35.80
2018-12-18T12:06:41.107Z,35.90
2018-12-18T12:09:19.931Z,35.80
2018-12-18T12:11:59.115Z,35.50
2018-12-18T12:14:32.117Z,34.40
2018-12-18T12:17:05.019Z,33.30
2018-12-18T12:19:37.832Z,33.80
2018-12-18T12:22:10.928Z,33.80
2018-12-18T12:24:43.190Z,30.90
2018-12-18T12:27:22.181Z,30.90
2018-12-18T12:29:54.957Z,32.80
2018-12-18T12:32:41.341Z,32.70
2018-12-18T12:35:13.705Z,31.30
2018-12-18T12:37:46.377Z,31.40
2018-12-18T12:40:19.377Z,31.20
2018-12-18T12:42:52.029Z,32.40
2018-12-18T12:45:24.729Z,31.40
2018-12-18T12:47:59.474Z,30.70
2018-12-18T12:50:32.518Z,31.60
2018-12-18T12:53:03.579Z,30.50
2018-12-18T12:55:36.688Z,31.10
2018-12-18T13:00:37.290Z,30.50
2018-12-18T13:05:41.357Z,30.00
2018-12-18T13:10:44.719Z,29.80
2018-12-18T13:13:17.298Z,29.80
2018-12-18T13:15:48.056Z,29.10
2018-12-18T13:18:20.635Z,29.60
2018-12-18T13:24:00.253Z,31.10
2018-12-18T13:26:33.191Z,32.00
2018-12-18T13:29:05.941Z,32.40
2018-12-18T13:31:38.743Z,31.10
2018-12-18T13:34:09.775Z,31.60
2018-12-18T13:36:45.876Z,31.80
2018-12-18T13:39:18.159Z,32.80
2018-12-18T13:41:50.931Z,31.90
2018-12-18T13:44:26.069Z,33.00
2018-12-18T13:47:01.710Z,34.00
2018-12-18T13:49:34.131Z,35.00
2018-12-18T13:52:07.019Z,35.40
2018-12-18T13:54:37.808Z,36.20
2018-12-18T13:57:11.193Z,37.30
2018-12-18T13:59:43.335Z,37.40
2018-12-18T14:02:16.150Z,38.40
2018-12-18T14:05:08.007Z,40.60
2018-12-18T14:07:43.384Z,41.60
2018-12-18T14:10:15.783Z,45.00
2018-12-18T14:13:01.016Z,45.80
2018-12-18T14:15:33.242Z,46.10
2018-12-18T14:18:07.160Z,46.80
2018-12-18T14:20:40.138Z,48.10
2018-12-18T14:23:13.121Z,48.50
2018-12-18T14:25:46.410Z,48.40
2018-12-18T14:28:19.207Z,48.50
2018-12-18T14:30:52.161Z,48.30
2018-12-18T14:33:24.951Z,48.60
2018-12-18T14:35:57.773Z,48.60
2018-12-18T14:38:30.693Z,49.40
2018-12-18T14:41:03.570Z,49.60
2018-12-18T14:43:36.221Z,50.20
2018-12-18T14:46:09.655Z,51.30
2018-12-18T14:48:45.223Z,52.60
2018-12-18T14:51:17.925Z,53.50
2018-12-18T14:53:50.716Z,54.70
2018-12-18T14:56:24.110Z,53.80
2018-12-18T14:58:57.258Z,53.80
2018-12-18T15:01:30.206Z,53.90
2018-12-18T15:04:03.133Z,54.80
2018-12-18T15:06:35.971Z,55.70
2018-12-18T15:09:08.711Z,56.40
2018-12-18T15:11:41.573Z,57.30
2018-12-18T15:14:13.714Z,57.50
2018-12-18T15:16:46.568Z,56.70
2018-12-18T15:19:20.653Z,57.40
2018-12-18T15:21:53.352Z,58.20
2018-12-18T15:24:25.196Z,59.10
2018-12-18T15:26:58.118Z,59.90
2018-12-18T15:29:32.116Z,60.50
2018-12-18T15:32:04.732Z,60.80
2018-12-18T15:34:37.555Z,61.10
2018-12-18T15:37:10.530Z,61.60
2018-12-18T15:39:43.167Z,62.20
2018-12-18T15:42:15.597Z,62.30
2018-12-18T15:44:48.392Z,61.90
2018-12-18T15:47:21.041Z,62.20
2018-12-18T15:49:55.036Z,63.40
2018-12-18T15:52:27.420Z,63.60
2018-12-18T15:54:57.954Z,64.70
2018-12-18T15:57:29.167Z,65.30
2018-12-18T16:00:01.642Z,65.90
2018-12-18T16:02:34.325Z,65.40
2018-12-18T16:05:07.391Z,65.00
2018-12-18T16:07:40.126Z,65.30
2018-12-18T16:10:13.194Z,66.20
2018-12-18T16:12:45.809Z,66.10
2018-12-18T16:15:19.432Z,66.70
2018-12-18T16:20:21.519Z,67.70
2018-12-18T16:22:52.332Z,67.60
2018-12-18T16:25:25.434Z,68.00
2018-12-18T16:27:58.332Z,67.60
2018-12-18T16:30:31.123Z,67.40
2018-12-18T16:33:04.002Z,67.50
2018-12-18T16:35:36.702Z,68.40
2018-12-18T16:38:11.850Z,69.00
2018-12-18T16:40:44.639Z,69.80
2018-12-18T16:43:17.270Z,70.50
2018-12-18T16:45:48.162Z,71.30
2018-12-18T16:48:20.762Z,72.30
2018-12-18T16:50:54.525Z,73.80
2018-12-18T16:53:27.292Z,73.90
2018-12-18T16:56:00.280Z,74.20
2018-12-18T16:58:33.946Z,74.80
2018-12-18T17:01:06.092Z,75.00
2018-12-18T17:03:39.005Z,75.20
2018-12-18T17:06:12.370Z,74.50
2018-12-18T17:08:44.532Z,74.10
2018-12-18T17:11:17.360Z,72.80
2018-12-18T17:13:51.065Z,71.90
2018-12-18T17:16:23.338Z,72.40
2018-12-18T17:18:56.210Z,73.40
2018-12-18T17:21:29.023Z,73.90
2018-12-18T17:24:01.831Z,73.90
2018-12-18T17:26:34.636Z,74.90
2018-12-18T17:29:06.627Z,73.60
2018-12-18T17:31:39.482Z,72.40
2018-12-18T17:34:12.530Z,71.50
2018-12-18T17:36:46.419Z,71.40
2018-12-18T17:39:19.070Z,71.40
2018-12-18T17:41:51.945Z,72.30
2018-12-18T17:44:24.979Z,72.50
2018-12-18T17:46:58.462Z,72.80
2018-12-18T17:49:31.631Z,73.80
2018-12-18T17:52:04.598Z,73.20
2018-12-18T17:54:38.143Z,73.70
2018-12-18T17:57:10.396Z,74.80
2018-12-18T17:59:42.936Z,75.30
2018-12-18T18:02:15.909Z,75.50
2018-12-18T18:04:49.374Z,75.30
2018-12-18T18:07:22.643Z,75.40
2018-12-18T18:09:55.719Z,76.00
2018-12-18T18:12:30.068Z,77.00
2018-12-18T18:15:03.469Z,77.90
2018-12-18T18:17:36.400Z,79.70
2018-12-18T18:20:09.325Z,80.80
2018-12-18T18:22:42.180Z,82.30
2018-12-18T18:25:14.761Z,85.40
2018-12-18T18:27:48.203Z,83.60
2018-12-18T18:30:23.298Z,82.80
2018-12-18T18:32:57.787Z,83.60
2018-12-18T18:35:30.832Z,83.90
2018-12-18T18:38:07.418Z,84.60
2018-12-18T18:40:41.412Z,85.00
2018-12-18T18:43:14.312Z,84.40
2018-12-18T18:45:47.026Z,84.50
2018-12-18T18:48:19.598Z,84.50
2018-12-18T18:50:54.387Z,85.60
2018-12-18T18:53:26.895Z,86.40
2018-12-18T18:56:00.268Z,86.70
2018-12-18T18:58:33.535Z,87.10
2018-12-18T19:01:07.021Z,88.00
2018-12-18T19:03:39.457Z,88.50
2018-12-18T19:06:12.183Z,89.70
2018-12-18T19:08:46.057Z,90.80
2018-12-18T19:11:19.890Z,91.10
2018-12-18T19:13:53.489Z,90.80
2018-12-18T19:16:27.491Z,92.50
2018-12-18T19:19:00.165Z,92.80
2018-12-18T19:21:32.247Z,94.00
2018-12-18T19:24:06.222Z,94.90
2018-12-18T19:26:39.575Z,92.80
2018-12-18T19:29:12.301Z,90.70
2018-12-18T19:31:45.025Z,90.40
2018-12-18T19:34:17.240Z,89.00
2018-12-18T19:36:52.446Z,89.50
2018-12-18T19:39:25.051Z,89.70
2018-12-18T19:41:57.717Z,90.20
2018-12-18T19:44:30.592Z,90.60
2018-12-18T19:47:03.304Z,90.80
2018-12-18T19:52:46.870Z,91.20
2018-12-18T19:55:18.987Z,92.80
2018-12-18T19:58:04.738Z,92.90
2018-12-18T20:01:02.908Z,90.90
2018-12-18T20:03:37.084Z,91.60
2018-12-18T20:06:11.023Z,92.90
2018-12-18T20:08:44.914Z,92.30
2018-12-18T20:11:17.752Z,92.00
2018-12-18T20:13:51.340Z,93.50
2018-12-18T20:16:24.149Z,95.00
2018-12-18T20:18:57.323Z,95.50
2018-12-18T20:21:30.401Z,96.10
2018-12-18T20:24:01.616Z,95.30
2018-12-18T20:26:34.559Z,95.80
2018-12-18T20:29:07.466Z,97.30
2018-12-18T20:31:40.565Z,94.70
2018-12-18T20:34:14.362Z,94.20
2018-12-18T20:36:48.032Z,93.40
2018-12-18T20:39:20.754Z,92.40
2018-12-18T20:41:53.217Z,91.80
2018-12-18T20:44:26.017Z,92.10
2018-12-18T20:46:59.013Z,93.60
2018-12-18T20:49:31.981Z,89.80
2018-12-18T20:52:04.607Z,89.90
2018-12-18T20:54:40.109Z,91.40
2018-12-18T20:57:13.920Z,93.40
2018-12-18T20:59:46.737Z,94.20
2018-12-18T21:02:20.141Z,95.10
2018-12-18T21:04:52.978Z,96.80
2018-12-18T21:07:25.224Z,96.90
2018-12-18T21:09:58.320Z,96.90
2018-12-18T21:12:30.970Z,96.60
2018-12-18T21:15:05.046Z,97.10
2018-12-18T21:17:38.057Z,97.60
2018-12-18T21:20:10.626Z,97.10
2018-12-18T21:22:43.532Z,97.00
2018-12-18T21:25:19.068Z,97.70
2018-12-18T21:31:03.983Z,98.60
2018-12-18T21:33:41.922Z,98.20
2018-12-18T21:36:19.565Z,98.40
2018-12-18T21:38:55.919Z,98.10
2018-12-18T21:41:32.393Z,98.40
2018-12-18T21:44:10.132Z,98.40
2018-12-18T21:46:48.405Z,98.60
2018-12-18T21:49:24.775Z,99.00
2018-12-18T21:51:57.262Z,98.80
2018-12-18T21:54:33.847Z,98.30
2018-12-18T21:57:09.149Z,98.30
2018-12-18T21:59:43.388Z,98.10
2018-12-18T22:02:15.556Z,98.50
2018-12-18T22:04:48.538Z,98.40
2018-12-18T22:07:19.327Z,98.80
2018-12-18T22:09:53.337Z,99.20
2018-12-18T22:12:26.498Z,99.60
2018-12-18T22:14:58.574Z,99.20
2018-12-18T22:17:36.026Z,99.00
2018-12-18T22:20:09.151Z,98.80
2018-12-18T22:22:43.044Z,99.60
2018-12-18T22:25:16.103Z,99.90
2018-12-18T22:27:49.329Z,99.90
2018-12-18T22:30:22.032Z,99.40
2018-12-18T22:32:55.897Z,98.50
2018-12-18T22:35:28.789Z,97.90
2018-12-18T22:38:01.342Z,97.60
2018-12-18T22:40:34.201Z,98.20
2018-12-18T22:43:06.934Z,98.30
2018-12-18T22:45:39.981Z,97.90
2018-12-18T22:48:12.702Z,98.20
2018-12-18T22:50:45.521Z,98.80
2018-12-18T22:53:18.615Z,98.50
2018-12-18T22:55:51.121Z,98.90
2018-12-18T22:58:24.713Z,98.80
2018-12-18T23:01:01.631Z,99.30
2018-12-18T23:03:34.029Z,99.40
2018-12-18T23:06:07.188Z,99.30
2018-12-18T23:08:40.263Z,99.10
2018-12-18T23:11:13.813Z,99.70
2018-12-18T23:13:46.438Z,99.90
2018-12-18T23:16:19.711Z,99.60
2018-12-18T23:18:52.308Z,99.40
2018-12-18T23:21:25.028Z,99.50
2018-12-18T23:24:06.708Z,99.60
2018-12-18T23:26:39.669Z,99.90
2018-12-18T23:29:12.481Z,99.90
2018-12-18T23:31:45.360Z,99.90
2018-12-18T23:34:33.054Z,99.90
2018-12-18T23:37:16.643Z,99.90
2018-12-18T23:39:48.863Z,99.90
2018-12-18T23:42:21.903Z,99.90
2018-12-18T23:44:53.971Z,99.90
2018-12-18T23:47:26.783Z,99.90
2018-12-18T23:49:59.636Z,99.90
2018-12-18T23:52:30.618Z,99.90
2018-12-18T23:55:04.118Z,99.90
2018-12-18T23:57:36.501Z,99.90
